Elgin, Pennsylvania
Current Conditions -  °F | °C
As of 10:51 AM on Wednesday 28 Jan 2015 (Local Time) from KERI Reporting Station
Clear Clear  
Wind Chill:   Ceiling: Unl
Heat Index: 16°   Visibility: 10mi
Dew Point: 10°   Wind: 7mph
Humidity: 77%   Direction: 220°SW
Pressure: 30.35"   Gusts: NA
Location:  41.9°N, 79.74°W
Report Text: KERI 281551Z 22006KT 10SM CLR M09/M12 A3035 RMK AO2 SLP292 T10891122
Loading
Personal Weather Stations






























Interactive Weather Map New forecast layout! Learn more

10-Day Weather Forecast

Advertisements
Track Severe Weather on mobile